Hauptseite
METAR-TAF:

METAR-TAF

Flughäfen :

Princess Juliana International Airport

Sint Maarten, Niederländische Antillen

Breite: 18-03N, Länge: 063-07W, Höhe: 4 m

Beobachtung

Neuester Wetterbericht von vor 1 Stunde und 22 Minuten, um 04:00 UTC
Wind 7 kt aus Ost/Nordost, variierte zwischen Nord/Nordost und Ost
Temperatur 25°C
Luftfeuchtigkeit 83%
Luftdruck 1018 hPa
Sichtweite 10 km oder mehr
Leicht bewölkt in der Höhe von 1800 ft

METAR: TNCM 280400Z 06007KT 030V100 9999 FEW018 25/22 Q1018

Zeit: 01:22 (05:22 UTC)

Prognose

Neuester Wetterbericht von vor 7 Stunden und 22 Minuten, um 22:00 UTC
Gültige Prognose vom 28 um 00 UTC bis 28 um 24 UTC
Wind 9 kt aus Ost/Nordost
Sichtweite 10 km oder mehr
Aufgelockert bewölkt in der Höhe von 1800 ft

TAF: TNCM 272200Z 2800/2824 07009KT 9999 SCT018

Wetterbeobachtungen und Prognosen von mehr als 4000 Flughäfen (METAR und TAF Bericht).

Die verfügbaren Stationen werden durch gelbe und rote Markierungen auf der Karte dargestellt.

Führen Sie die Maus auf sie, um den Namen der Station zu sehen.

Darauf klicken, um die Beobachtung von Wetterbeobachtungen und Prognosen zu sehen.

Um die Karte zu ändern : klicken Sie auf den grünen Tasten mit einem schwarzen Kreuz Zum Vergrößern, auf den grünen Button mit einem Gedankenstrich zu verkleinern, oder auf die grünen Pfeile für benachbarte Karten.


METAR-TAF: